sensor_id;sensor_type;location;lat;lon;timestamp;P1;durP1;ratioP1;P2;durP2;ratioP2
1585;SDS011;786;48.718;9.514;2023-11-19T00:01:43;10.55;;;6.97;;
1585;SDS011;786;48.718;9.514;2023-11-19T00:04:09;9.02;;;6.13;;
1585;SDS011;786;48.718;9.514;2023-11-19T00:06:35;8.43;;;6.80;;
1585;SDS011;786;48.718;9.514;2023-11-19T00:09:02;9.25;;;6.60;;
1585;SDS011;786;48.718;9.514;2023-11-19T00:11:30;12.65;;;8.93;;
1585;SDS011;786;48.718;9.514;2023-11-19T00:13:56;11.88;;;8.10;;
1585;SDS011;786;48.718;9.514;2023-11-19T00:16:22;9.90;;;7.85;;
1585;SDS011;786;48.718;9.514;2023-11-19T00:18:50;8.90;;;7.50;;
1585;SDS011;786;48.718;9.514;2023-11-19T00:21:17;39.92;;;9.88;;
1585;SDS011;786;48.718;9.514;2023-11-19T00:23:43;12.85;;;8.25;;
1585;SDS011;786;48.718;9.514;2023-11-19T00:26:10;11.20;;;7.50;;
1585;SDS011;786;48.718;9.514;2023-11-19T00:28:37;18.10;;;8.25;;
1585;SDS011;786;48.718;9.514;2023-11-19T00:31:04;14.63;;;7.50;;
1585;SDS011;786;48.718;9.514;2023-11-19T00:33:30;11.30;;;7.10;;
1585;SDS011;786;48.718;9.514;2023-11-19T00:35:58;12.60;;;7.57;;
1585;SDS011;786;48.718;9.514;2023-11-19T00:38:24;41.75;;;9.02;;
1585;SDS011;786;48.718;9.514;2023-11-19T00:40:51;10.20;;;8.20;;
1585;SDS011;786;48.718;9.514;2023-11-19T00:43:17;8.60;;;6.70;;
1585;SDS011;786;48.718;9.514;2023-11-19T00:45:47;8.63;;;6.68;;
1585;SDS011;786;48.718;9.514;2023-11-19T00:48:15;6.93;;;5.60;;
1585;SDS011;786;48.718;9.514;2023-11-19T00:50:41;5.07;;;4.53;;
1585;SDS011;786;48.718;9.514;2023-11-19T00:53:10;8.02;;;5.43;;
1585;SDS011;786;48.718;9.514;2023-11-19T00:55:37;13.27;;;6.85;;
1585;SDS011;786;48.718;9.514;2023-11-19T00:58:03;29.02;;;9.60;;
1585;SDS011;786;48.718;9.514;2023-11-19T01:00:30;8.90;;;7.32;;
1585;SDS011;786;48.718;9.514;2023-11-19T01:02:57;9.52;;;6.65;;
1585;SDS011;786;48.718;9.514;2023-11-19T01:05:25;12.27;;;5.95;;
1585;SDS011;786;48.718;9.514;2023-11-19T01:07:51;8.98;;;6.53;;
1585;SDS011;786;48.718;9.514;2023-11-19T01:10:20;8.02;;;5.03;;
1585;SDS011;786;48.718;9.514;2023-11-19T01:12:46;6.97;;;5.13;;
1585;SDS011;786;48.718;9.514;2023-11-19T01:15:13;8.15;;;5.35;;
1585;SDS011;786;48.718;9.514;2023-11-19T01:17:39;6.68;;;5.30;;
1585;SDS011;786;48.718;9.514;2023-11-19T01:20:06;6.30;;;5.60;;
1585;SDS011;786;48.718;9.514;2023-11-19T01:22:37;6.75;;;5.50;;
1585;SDS011;786;48.718;9.514;2023-11-19T01:25:04;7.43;;;6.30;;
1585;SDS011;786;48.718;9.514;2023-11-19T01:27:32;7.90;;;6.28;;
1585;SDS011;786;48.718;9.514;2023-11-19T01:30:00;7.57;;;6.78;;
1585;SDS011;786;48.718;9.514;2023-11-19T01:32:27;30.00;;;7.45;;
1585;SDS011;786;48.718;9.514;2023-11-19T01:34:53;10.05;;;6.82;;
1585;SDS011;786;48.718;9.514;2023-11-19T01:37:19;7.35;;;5.22;;
1585;SDS011;786;48.718;9.514;2023-11-19T01:39:46;15.85;;;5.85;;
1585;SDS011;786;48.718;9.514;2023-11-19T01:42:12;8.27;;;5.80;;
1585;SDS011;786;48.718;9.514;2023-11-19T01:44:40;10.65;;;4.93;;
1585;SDS011;786;48.718;9.514;2023-11-19T01:47:06;7.68;;;6.00;;
1585;SDS011;786;48.718;9.514;2023-11-19T01:49:33;11.00;;;6.55;;
1585;SDS011;786;48.718;9.514;2023-11-19T01:52:00;18.48;;;6.75;;
1585;SDS011;786;48.718;9.514;2023-11-19T01:54:26;7.35;;;5.90;;
1585;SDS011;786;48.718;9.514;2023-11-19T01:56:54;7.82;;;6.05;;
1585;SDS011;786;48.718;9.514;2023-11-19T01:59:22;7.50;;;6.72;;
1585;SDS011;786;48.718;9.514;2023-11-19T02:01:53;30.52;;;9.00;;
1585;SDS011;786;48.718;9.514;2023-11-19T02:04:20;9.88;;;7.60;;
1585;SDS011;786;48.718;9.514;2023-11-19T02:06:46;11.07;;;7.43;;
1585;SDS011;786;48.718;9.514;2023-11-19T02:09:14;8.55;;;6.75;;
1585;SDS011;786;48.718;9.514;2023-11-19T02:11:44;8.85;;;6.43;;
1585;SDS011;786;48.718;9.514;2023-11-19T02:14:14;11.55;;;6.75;;
1585;SDS011;786;48.718;9.514;2023-11-19T02:16:40;5.10;;;4.60;;
1585;SDS011;786;48.718;9.514;2023-11-19T02:19:08;5.38;;;4.88;;
1585;SDS011;786;48.718;9.514;2023-11-19T02:21:35;4.07;;;3.67;;
1585;SDS011;786;48.718;9.514;2023-11-19T02:24:02;4.63;;;4.22;;
1585;SDS011;786;48.718;9.514;2023-11-19T02:26:33;4.30;;;3.40;;
1585;SDS011;786;48.718;9.514;2023-11-19T02:29:06;5.60;;;5.10;;
1585;SDS011;786;48.718;9.514;2023-11-19T02:31:32;3.63;;;3.33;;
1585;SDS011;786;48.718;9.514;2023-11-19T02:34:00;4.72;;;3.92;;
1585;SDS011;786;48.718;9.514;2023-11-19T02:36:27;3.83;;;3.53;;
1585;SDS011;786;48.718;9.514;2023-11-19T02:38:54;4.00;;;3.60;;
1585;SDS011;786;48.718;9.514;2023-11-19T02:41:20;3.33;;;2.85;;
1585;SDS011;786;48.718;9.514;2023-11-19T02:43:47;3.05;;;2.75;;
1585;SDS011;786;48.718;9.514;2023-11-19T02:46:15;2.78;;;2.58;;
1585;SDS011;786;48.718;9.514;2023-11-19T02:48:44;3.15;;;2.70;;
1585;SDS011;786;48.718;9.514;2023-11-19T02:51:11;2.70;;;2.50;;
1585;SDS011;786;48.718;9.514;2023-11-19T02:53:37;3.03;;;2.80;;
1585;SDS011;786;48.718;9.514;2023-11-19T02:56:04;4.10;;;3.90;;
1585;SDS011;786;48.718;9.514;2023-11-19T02:58:40;3.20;;;2.88;;
1585;SDS011;786;48.718;9.514;2023-11-19T03:01:07;3.40;;;3.10;;
1585;SDS011;786;48.718;9.514;2023-11-19T03:03:45;2.97;;;2.80;;
1585;SDS011;786;48.718;9.514;2023-11-19T03:06:18;3.90;;;2.80;;
1585;SDS011;786;48.718;9.514;2023-11-19T03:08:46;2.75;;;2.55;;
1585;SDS011;786;48.718;9.514;2023-11-19T03:11:13;3.05;;;2.45;;
1585;SDS011;786;48.718;9.514;2023-11-19T03:13:39;2.28;;;2.10;;
1585;SDS011;786;48.718;9.514;2023-11-19T03:16:06;3.20;;;3.00;;
1585;SDS011;786;48.718;9.514;2023-11-19T03:18:33;2.75;;;2.55;;
1585;SDS011;786;48.718;9.514;2023-11-19T03:21:01;3.45;;;3.05;;
1585;SDS011;786;48.718;9.514;2023-11-19T03:23:28;2.63;;;2.47;;
1585;SDS011;786;48.718;9.514;2023-11-19T03:25:54;2.92;;;2.50;;
1585;SDS011;786;48.718;9.514;2023-11-19T03:28:22;2.35;;;2.15;;
1585;SDS011;786;48.718;9.514;2023-11-19T03:30:48;1.85;;;1.75;;
1585;SDS011;786;48.718;9.514;2023-11-19T03:33:14;2.40;;;2.05;;
1585;SDS011;786;48.718;9.514;2023-11-19T03:35:41;1.80;;;1.58;;
1585;SDS011;786;48.718;9.514;2023-11-19T03:38:09;2.75;;;2.55;;
1585;SDS011;786;48.718;9.514;2023-11-19T03:40:35;2.38;;;2.22;;
1585;SDS011;786;48.718;9.514;2023-11-19T03:43:02;2.63;;;2.42;;
1585;SDS011;786;48.718;9.514;2023-11-19T03:45:29;2.03;;;1.92;;
1585;SDS011;786;48.718;9.514;2023-11-19T03:47:55;2.47;;;2.15;;
1585;SDS011;786;48.718;9.514;2023-11-19T03:50:22;1.90;;;1.48;;
1585;SDS011;786;48.718;9.514;2023-11-19T03:52:49;1.60;;;1.50;;
1585;SDS011;786;48.718;9.514;2023-11-19T03:55:16;2.25;;;2.10;;
1585;SDS011;786;48.718;9.514;2023-11-19T03:57:43;1.83;;;1.45;;
1585;SDS011;786;48.718;9.514;2023-11-19T04:00:09;3.30;;;3.20;;
1585;SDS011;786;48.718;9.514;2023-11-19T04:02:39;2.10;;;2.00;;
1585;SDS011;786;48.718;9.514;2023-11-19T04:05:06;4.50;;;3.08;;
1585;SDS011;786;48.718;9.514;2023-11-19T04:07:32;1.88;;;1.77;;
1585;SDS011;786;48.718;9.514;2023-11-19T04:09:59;2.17;;;2.08;;
1585;SDS011;786;48.718;9.514;2023-11-19T04:12:27;2.08;;;1.98;;
1585;SDS011;786;48.718;9.514;2023-11-19T04:14:53;1.40;;;1.30;;
1585;SDS011;786;48.718;9.514;2023-11-19T04:17:20;2.30;;;1.42;;
1585;SDS011;786;48.718;9.514;2023-11-19T04:19:48;1.70;;;1.60;;
1585;SDS011;786;48.718;9.514;2023-11-19T04:22:14;1.75;;;1.58;;
1585;SDS011;786;48.718;9.514;2023-11-19T04:24:40;1.23;;;1.17;;
1585;SDS011;786;48.718;9.514;2023-11-19T04:27:09;2.97;;;2.78;;
1585;SDS011;786;48.718;9.514;2023-11-19T04:29:36;2.28;;;1.83;;
1585;SDS011;786;48.718;9.514;2023-11-19T04:32:03;2.60;;;2.50;;
1585;SDS011;786;48.718;9.514;2023-11-19T04:34:30;1.70;;;1.60;;
1585;SDS011;786;48.718;9.514;2023-11-19T04:36:56;1.80;;;1.70;;
1585;SDS011;786;48.718;9.514;2023-11-19T04:39:23;1.77;;;1.50;;
1585;SDS011;786;48.718;9.514;2023-11-19T04:41:50;0.98;;;0.98;;
1585;SDS011;786;48.718;9.514;2023-11-19T04:44:18;5.20;;;1.30;;
1585;SDS011;786;48.718;9.514;2023-11-19T04:46:46;3.22;;;1.80;;
1585;SDS011;786;48.718;9.514;2023-11-19T04:49:13;2.30;;;2.20;;
1585;SDS011;786;48.718;9.514;2023-11-19T04:51:39;1.42;;;1.42;;
1585;SDS011;786;48.718;9.514;2023-11-19T04:54:06;1.95;;;1.85;;
1585;SDS011;786;48.718;9.514;2023-11-19T04:56:33;1.75;;;1.50;;
1585;SDS011;786;48.718;9.514;2023-11-19T04:59:00;2.30;;;2.20;;
1585;SDS011;786;48.718;9.514;2023-11-19T05:01:27;1.50;;;1.40;;
1585;SDS011;786;48.718;9.514;2023-11-19T05:03:55;2.13;;;1.55;;
1585;SDS011;786;48.718;9.514;2023-11-19T05:06:25;1.88;;;1.75;;
1585;SDS011;786;48.718;9.514;2023-11-19T05:08:52;2.00;;;1.80;;
1585;SDS011;786;48.718;9.514;2023-11-19T05:11:19;2.03;;;1.83;;
1585;SDS011;786;48.718;9.514;2023-11-19T05:13:45;0.98;;;0.93;;
1585;SDS011;786;48.718;9.514;2023-11-19T05:16:11;1.83;;;1.73;;
1585;SDS011;786;48.718;9.514;2023-11-19T05:18:39;2.08;;;1.92;;
1585;SDS011;786;48.718;9.514;2023-11-19T05:21:06;2.28;;;2.17;;
1585;SDS011;786;48.718;9.514;2023-11-19T05:23:33;1.75;;;1.65;;
1585;SDS011;786;48.718;9.514;2023-11-19T05:26:01;2.50;;;1.63;;
1585;SDS011;786;48.718;9.514;2023-11-19T05:28:27;1.35;;;1.33;;
1585;SDS011;786;48.718;9.514;2023-11-19T05:30:54;2.22;;;1.10;;
1585;SDS011;786;48.718;9.514;2023-11-19T05:33:21;3.47;;;1.90;;
1585;SDS011;786;48.718;9.514;2023-11-19T05:35:47;2.60;;;1.30;;
1585;SDS011;786;48.718;9.514;2023-11-19T05:38:15;1.90;;;1.50;;
1585;SDS011;786;48.718;9.514;2023-11-19T05:40:41;1.30;;;1.30;;
1585;SDS011;786;48.718;9.514;2023-11-19T05:43:08;3.20;;;2.03;;
1585;SDS011;786;48.718;9.514;2023-11-19T05:45:35;4.13;;;1.70;;
1585;SDS011;786;48.718;9.514;2023-11-19T05:48:02;1.67;;;1.58;;
1585;SDS011;786;48.718;9.514;2023-11-19T05:50:29;3.60;;;2.15;;
1585;SDS011;786;48.718;9.514;2023-11-19T05:52:55;3.22;;;0.95;;
1585;SDS011;786;48.718;9.514;2023-11-19T05:55:23;1.50;;;1.40;;
1585;SDS011;786;48.718;9.514;2023-11-19T05:57:50;1.70;;;0.90;;
1585;SDS011;786;48.718;9.514;2023-11-19T06:00:17;1.75;;;1.65;;
1585;SDS011;786;48.718;9.514;2023-11-19T06:02:43;1.02;;;1.02;;
1585;SDS011;786;48.718;9.514;2023-11-19T06:05:10;1.65;;;1.65;;
1585;SDS011;786;48.718;9.514;2023-11-19T06:07:36;4.90;;;1.55;;
1585;SDS011;786;48.718;9.514;2023-11-19T06:10:04;4.85;;;2.15;;
1585;SDS011;786;48.718;9.514;2023-11-19T06:12:33;1.55;;;1.55;;
1585;SDS011;786;48.718;9.514;2023-11-19T06:15:02;8.15;;;2.38;;
1585;SDS011;786;48.718;9.514;2023-11-19T06:17:30;1.52;;;1.52;;
1585;SDS011;786;48.718;9.514;2023-11-19T06:19:56;1.23;;;1.23;;
1585;SDS011;786;48.718;9.514;2023-11-19T06:22:23;1.00;;;1.00;;
1585;SDS011;786;48.718;9.514;2023-11-19T06:24:49;1.02;;;0.93;;
1585;SDS011;786;48.718;9.514;2023-11-19T06:27:15;1.98;;;1.88;;
1585;SDS011;786;48.718;9.514;2023-11-19T06:29:43;1.55;;;1.45;;
1585;SDS011;786;48.718;9.514;2023-11-19T06:32:09;1.73;;;1.67;;
1585;SDS011;786;48.718;9.514;2023-11-19T06:34:37;1.50;;;1.40;;
1585;SDS011;786;48.718;9.514;2023-11-19T06:37:03;2.65;;;2.08;;
1585;SDS011;786;48.718;9.514;2023-11-19T06:39:29;1.52;;;1.52;;
1585;SDS011;786;48.718;9.514;2023-11-19T06:41:56;3.25;;;1.20;;
1585;SDS011;786;48.718;9.514;2023-11-19T06:44:22;1.20;;;1.13;;
1585;SDS011;786;48.718;9.514;2023-11-19T06:46:51;1.02;;;1.00;;
1585;SDS011;786;48.718;9.514;2023-11-19T06:49:18;1.10;;;1.10;;
1585;SDS011;786;48.718;9.514;2023-11-19T06:51:45;3.10;;;1.23;;
1585;SDS011;786;48.718;9.514;2023-11-19T06:54:11;2.42;;;2.33;;
1585;SDS011;786;48.718;9.514;2023-11-19T06:56:37;1.95;;;1.63;;
1585;SDS011;786;48.718;9.514;2023-11-19T06:59:04;2.05;;;1.98;;
1585;SDS011;786;48.718;9.514;2023-11-19T07:01:34;1.98;;;1.88;;
1585;SDS011;786;48.718;9.514;2023-11-19T07:04:02;1.25;;;1.15;;
1585;SDS011;786;48.718;9.514;2023-11-19T07:06:33;1.33;;;1.33;;
1585;SDS011;786;48.718;9.514;2023-11-19T07:08:59;1.30;;;1.30;;
1585;SDS011;786;48.718;9.514;2023-11-19T07:13:57;1.20;;;1.10;;
1585;SDS011;786;48.718;9.514;2023-11-19T07:16:25;1.20;;;1.20;;
1585;SDS011;786;48.718;9.514;2023-11-19T07:18:52;1.50;;;1.40;;
1585;SDS011;786;48.718;9.514;2023-11-19T07:21:19;2.30;;;2.17;;
1585;SDS011;786;48.718;9.514;2023-11-19T07:23:46;1.00;;;1.00;;
1585;SDS011;786;48.718;9.514;2023-11-19T07:26:12;2.53;;;2.42;;
1585;SDS011;786;48.718;9.514;2023-11-19T07:28:39;2.28;;;1.75;;
1585;SDS011;786;48.718;9.514;2023-11-19T07:31:05;2.00;;;1.90;;
1585;SDS011;786;48.718;9.514;2023-11-19T07:33:32;1.98;;;1.88;;
1585;SDS011;786;48.718;9.514;2023-11-19T07:35:59;1.30;;;1.30;;
1585;SDS011;786;48.718;9.514;2023-11-19T07:38:26;1.30;;;1.30;;
1585;SDS011;786;48.718;9.514;2023-11-19T07:40:53;1.30;;;1.20;;
1585;SDS011;786;48.718;9.514;2023-11-19T07:43:20;2.42;;;2.30;;
1585;SDS011;786;48.718;9.514;2023-11-19T07:45:46;1.40;;;1.38;;
1585;SDS011;786;48.718;9.514;2023-11-19T07:48:12;2.53;;;2.42;;
1585;SDS011;786;48.718;9.514;2023-11-19T07:50:40;2.60;;;2.40;;
1585;SDS011;786;48.718;9.514;2023-11-19T07:53:07;3.10;;;2.90;;
1585;SDS011;786;48.718;9.514;2023-11-19T07:55:35;2.10;;;1.95;;
1585;SDS011;786;48.718;9.514;2023-11-19T07:58:01;1.60;;;1.50;;
1585;SDS011;786;48.718;9.514;2023-11-19T08:00:28;3.35;;;2.85;;
1585;SDS011;786;48.718;9.514;2023-11-19T08:02:54;3.67;;;2.95;;
1585;SDS011;786;48.718;9.514;2023-11-19T08:05:20;2.33;;;2.22;;
1585;SDS011;786;48.718;9.514;2023-11-19T08:07:49;2.15;;;2.05;;
1585;SDS011;786;48.718;9.514;2023-11-19T08:10:16;3.95;;;3.65;;
1585;SDS011;786;48.718;9.514;2023-11-19T08:12:44;1.70;;;1.60;;
1585;SDS011;786;48.718;9.514;2023-11-19T08:15:10;3.38;;;3.13;;
1585;SDS011;786;48.718;9.514;2023-11-19T08:17:36;2.40;;;1.95;;
1585;SDS011;786;48.718;9.514;2023-11-19T08:20:03;1.98;;;1.77;;
1585;SDS011;786;48.718;9.514;2023-11-19T08:22:33;2.35;;;2.25;;
1585;SDS011;786;48.718;9.514;2023-11-19T08:24:59;2.08;;;1.50;;
1585;SDS011;786;48.718;9.514;2023-11-19T08:27:25;2.45;;;2.28;;
1585;SDS011;786;48.718;9.514;2023-11-19T08:29:54;2.10;;;1.92;;
1585;SDS011;786;48.718;9.514;2023-11-19T08:32:21;3.65;;;3.35;;
1585;SDS011;786;48.718;9.514;2023-11-19T08:34:48;2.50;;;2.15;;
1585;SDS011;786;48.718;9.514;2023-11-19T08:37:14;3.80;;;3.50;;
1585;SDS011;786;48.718;9.514;2023-11-19T08:39:43;2.58;;;2.38;;
1585;SDS011;786;48.718;9.514;2023-11-19T08:42:09;2.95;;;2.80;;
1585;SDS011;786;48.718;9.514;2023-11-19T08:44:35;2.08;;;1.98;;
1585;SDS011;786;48.718;9.514;2023-11-19T08:47:03;1.40;;;1.30;;
1585;SDS011;786;48.718;9.514;2023-11-19T08:49:30;1.55;;;1.45;;
1585;SDS011;786;48.718;9.514;2023-11-19T08:51:56;2.33;;;2.00;;
1585;SDS011;786;48.718;9.514;2023-11-19T08:54:23;2.75;;;2.60;;
1585;SDS011;786;48.718;9.514;2023-11-19T08:56:49;2.10;;;2.00;;
1585;SDS011;786;48.718;9.514;2023-11-19T08:59:15;2.90;;;2.75;;
1585;SDS011;786;48.718;9.514;2023-11-19T09:01:42;3.40;;;3.10;;
1585;SDS011;786;48.718;9.514;2023-11-19T09:04:10;4.18;;;3.88;;
1585;SDS011;786;48.718;9.514;2023-11-19T09:06:36;4.63;;;2.65;;
1585;SDS011;786;48.718;9.514;2023-11-19T09:09:03;4.65;;;4.32;;
1585;SDS011;786;48.718;9.514;2023-11-19T09:11:30;4.25;;;3.95;;
1585;SDS011;786;48.718;9.514;2023-11-19T09:13:57;6.93;;;6.32;;
1585;SDS011;786;48.718;9.514;2023-11-19T09:16:23;4.15;;;3.85;;
1585;SDS011;786;48.718;9.514;2023-11-19T09:18:50;2.78;;;2.58;;
1585;SDS011;786;48.718;9.514;2023-11-19T09:21:18;4.03;;;3.80;;
1585;SDS011;786;48.718;9.514;2023-11-19T09:23:44;4.15;;;3.85;;
1585;SDS011;786;48.718;9.514;2023-11-19T09:26:12;4.60;;;4.20;;
1585;SDS011;786;48.718;9.514;2023-11-19T09:28:39;2.92;;;2.72;;
1585;SDS011;786;48.718;9.514;2023-11-19T09:31:12;2.40;;;2.17;;
1585;SDS011;786;48.718;9.514;2023-11-19T09:33:39;3.10;;;2.90;;
1585;SDS011;786;48.718;9.514;2023-11-19T09:36:06;3.35;;;2.50;;
1585;SDS011;786;48.718;9.514;2023-11-19T09:38:34;3.50;;;2.80;;
1585;SDS011;786;48.718;9.514;2023-11-19T09:41:03;2.58;;;2.38;;
1585;SDS011;786;48.718;9.514;2023-11-19T09:43:33;4.35;;;3.28;;
1585;SDS011;786;48.718;9.514;2023-11-19T09:46:00;2.80;;;2.60;;
1585;SDS011;786;48.718;9.514;2023-11-19T09:48:32;3.03;;;2.67;;
1585;SDS011;786;48.718;9.514;2023-11-19T09:50:58;3.00;;;2.67;;
1585;SDS011;786;48.718;9.514;2023-11-19T09:53:25;2.58;;;2.47;;
1585;SDS011;786;48.718;9.514;2023-11-19T09:55:53;2.25;;;2.15;;
1585;SDS011;786;48.718;9.514;2023-11-19T09:58:20;3.50;;;3.22;;
1585;SDS011;786;48.718;9.514;2023-11-19T10:00:47;2.38;;;2.13;;
1585;SDS011;786;48.718;9.514;2023-11-19T10:03:13;3.15;;;2.95;;
1585;SDS011;786;48.718;9.514;2023-11-19T10:05:40;2.28;;;2.17;;
1585;SDS011;786;48.718;9.514;2023-11-19T10:08:07;1.95;;;1.85;;
1585;SDS011;786;48.718;9.514;2023-11-19T10:10:34;2.28;;;2.17;;
1585;SDS011;786;48.718;9.514;2023-11-19T10:13:02;2.00;;;1.90;;
1585;SDS011;786;48.718;9.514;2023-11-19T10:15:28;1.67;;;1.58;;
1585;SDS011;786;48.718;9.514;2023-11-19T10:18:02;1.58;;;1.48;;
1585;SDS011;786;48.718;9.514;2023-11-19T10:20:29;2.72;;;2.63;;
1585;SDS011;786;48.718;9.514;2023-11-19T10:23:01;1.30;;;1.13;;
1585;SDS011;786;48.718;9.514;2023-11-19T10:25:28;1.90;;;1.80;;
1585;SDS011;786;48.718;9.514;2023-11-19T10:27:55;2.28;;;1.55;;
1585;SDS011;786;48.718;9.514;2023-11-19T10:30:23;2.58;;;2.47;;
1585;SDS011;786;48.718;9.514;2023-11-19T10:33:04;1.90;;;1.75;;
1585;SDS011;786;48.718;9.514;2023-11-19T10:35:31;2.15;;;2.05;;
1585;SDS011;786;48.718;9.514;2023-11-19T10:38:01;1.58;;;1.48;;
1585;SDS011;786;48.718;9.514;2023-11-19T10:40:40;2.20;;;2.10;;
1585;SDS011;786;48.718;9.514;2023-11-19T10:43:06;1.92;;;1.83;;
1585;SDS011;786;48.718;9.514;2023-11-19T10:45:35;2.60;;;2.00;;
1585;SDS011;786;48.718;9.514;2023-11-19T10:48:01;1.20;;;1.15;;
1585;SDS011;786;48.718;9.514;2023-11-19T10:50:31;2.00;;;1.90;;
1585;SDS011;786;48.718;9.514;2023-11-19T10:52:57;1.70;;;1.40;;
1585;SDS011;786;48.718;9.514;2023-11-19T10:55:26;2.67;;;2.58;;
1585;SDS011;786;48.718;9.514;2023-11-19T10:57:54;1.55;;;1.45;;
1585;SDS011;786;48.718;9.514;2023-11-19T11:00:24;2.92;;;2.83;;
1585;SDS011;786;48.718;9.514;2023-11-19T11:02:54;1.20;;;1.10;;
1585;SDS011;786;48.718;9.514;2023-11-19T11:05:21;3.10;;;3.00;;
1585;SDS011;786;48.718;9.514;2023-11-19T11:07:48;1.40;;;1.30;;
1585;SDS011;786;48.718;9.514;2023-11-19T11:10:16;2.47;;;2.38;;
1585;SDS011;786;48.718;9.514;2023-11-19T11:12:42;1.90;;;1.80;;
1585;SDS011;786;48.718;9.514;2023-11-19T11:15:10;2.20;;;2.10;;
1585;SDS011;786;48.718;9.514;2023-11-19T11:17:38;1.67;;;1.58;;
1585;SDS011;786;48.718;9.514;2023-11-19T11:20:07;2.10;;;2.00;;
1585;SDS011;786;48.718;9.514;2023-11-19T11:22:37;2.15;;;2.05;;
1585;SDS011;786;48.718;9.514;2023-11-19T11:25:19;2.28;;;2.17;;
1585;SDS011;786;48.718;9.514;2023-11-19T11:30:46;2.80;;;2.60;;
1585;SDS011;786;48.718;9.514;2023-11-19T11:36:13;2.15;;;1.55;;
1585;SDS011;786;48.718;9.514;2023-11-19T11:38:44;2.33;;;2.22;;
1585;SDS011;786;48.718;9.514;2023-11-19T11:41:17;2.53;;;2.42;;
1585;SDS011;786;48.718;9.514;2023-11-19T11:43:47;2.00;;;1.90;;
1585;SDS011;786;48.718;9.514;2023-11-19T11:49:24;3.05;;;2.95;;
1585;SDS011;786;48.718;9.514;2023-11-19T11:52:00;1.63;;;1.52;;
1585;SDS011;786;48.718;9.514;2023-11-19T11:54:28;1.90;;;1.80;;
1585;SDS011;786;48.718;9.514;2023-11-19T11:57:02;1.77;;;1.67;;
1585;SDS011;786;48.718;9.514;2023-11-19T11:59:34;2.28;;;2.17;;
1585;SDS011;786;48.718;9.514;2023-11-19T12:02:03;1.50;;;1.40;;
1585;SDS011;786;48.718;9.514;2023-11-19T12:04:29;2.53;;;2.42;;
1585;SDS011;786;48.718;9.514;2023-11-19T12:07:04;1.83;;;1.73;;
1585;SDS011;786;48.718;9.514;2023-11-19T12:09:31;2.70;;;2.50;;
1585;SDS011;786;48.718;9.514;2023-11-19T12:12:06;1.75;;;1.65;;
1585;SDS011;786;48.718;9.514;2023-11-19T12:17:41;4.45;;;4.15;;
1585;SDS011;786;48.718;9.514;2023-11-19T12:20:17;2.58;;;2.47;;
1585;SDS011;786;48.718;9.514;2023-11-19T12:22:46;2.35;;;2.25;;
1585;SDS011;786;48.718;9.514;2023-11-19T12:25:14;2.80;;;2.45;;
1585;SDS011;786;48.718;9.514;2023-11-19T12:27:41;3.25;;;3.05;;
1585;SDS011;786;48.718;9.514;2023-11-19T12:30:08;2.10;;;2.00;;
1585;SDS011;786;48.718;9.514;2023-11-19T12:32:38;3.70;;;3.10;;
1585;SDS011;786;48.718;9.514;2023-11-19T12:35:06;2.17;;;1.98;;
1585;SDS011;786;48.718;9.514;2023-11-19T12:37:38;2.63;;;2.53;;
1585;SDS011;786;48.718;9.514;2023-11-19T12:40:11;2.47;;;2.28;;
1585;SDS011;786;48.718;9.514;2023-11-19T12:42:38;2.10;;;2.00;;
1585;SDS011;786;48.718;9.514;2023-11-19T12:45:06;1.80;;;1.70;;
1585;SDS011;786;48.718;9.514;2023-11-19T12:47:34;2.20;;;2.10;;
1585;SDS011;786;48.718;9.514;2023-11-19T12:50:00;2.15;;;2.05;;
1585;SDS011;786;48.718;9.514;2023-11-19T12:52:27;3.40;;;3.20;;
1585;SDS011;786;48.718;9.514;2023-11-19T12:54:53;2.10;;;1.90;;
1585;SDS011;786;48.718;9.514;2023-11-19T12:57:21;3.42;;;3.25;;
1585;SDS011;786;48.718;9.514;2023-11-19T13:00:02;1.27;;;1.17;;
1585;SDS011;786;48.718;9.514;2023-11-19T13:02:44;2.83;;;2.63;;
1585;SDS011;786;48.718;9.514;2023-11-19T13:05:23;2.10;;;1.90;;
1585;SDS011;786;48.718;9.514;2023-11-19T13:07:51;1.58;;;1.30;;
1585;SDS011;786;48.718;9.514;2023-11-19T13:10:19;3.80;;;2.90;;
1585;SDS011;786;48.718;9.514;2023-11-19T13:13:00;2.45;;;2.35;;
1585;SDS011;786;48.718;9.514;2023-11-19T13:15:27;2.80;;;2.65;;
1585;SDS011;786;48.718;9.514;2023-11-19T13:17:54;1.52;;;1.42;;
1585;SDS011;786;48.718;9.514;2023-11-19T13:20:20;3.08;;;2.83;;
1585;SDS011;786;48.718;9.514;2023-11-19T13:22:53;1.95;;;1.85;;
1585;SDS011;786;48.718;9.514;2023-11-19T13:25:21;2.55;;;2.40;;
1585;SDS011;786;48.718;9.514;2023-11-19T13:27:48;2.83;;;1.98;;
1585;SDS011;786;48.718;9.514;2023-11-19T13:30:16;2.10;;;1.90;;
1585;SDS011;786;48.718;9.514;2023-11-19T13:32:42;2.47;;;1.88;;
1585;SDS011;786;48.718;9.514;2023-11-19T13:35:09;1.40;;;1.30;;
1585;SDS011;786;48.718;9.514;2023-11-19T13:37:36;1.60;;;1.50;;
1585;SDS011;786;48.718;9.514;2023-11-19T13:40:02;2.50;;;2.30;;
1585;SDS011;786;48.718;9.514;2023-11-19T13:42:29;3.00;;;2.70;;
1585;SDS011;786;48.718;9.514;2023-11-19T13:44:55;1.30;;;1.20;;
1585;SDS011;786;48.718;9.514;2023-11-19T13:47:23;2.80;;;2.60;;
1585;SDS011;786;48.718;9.514;2023-11-19T13:49:50;2.45;;;2.35;;
1585;SDS011;786;48.718;9.514;2023-11-19T13:52:16;1.90;;;1.67;;
1585;SDS011;786;48.718;9.514;2023-11-19T13:54:43;2.58;;;2.00;;
1585;SDS011;786;48.718;9.514;2023-11-19T13:57:09;1.58;;;1.48;;
1585;SDS011;786;48.718;9.514;2023-11-19T13:59:39;2.75;;;2.58;;
1585;SDS011;786;48.718;9.514;2023-11-19T14:02:05;1.90;;;1.70;;
1585;SDS011;786;48.718;9.514;2023-11-19T14:04:33;2.17;;;1.98;;
1585;SDS011;786;48.718;9.514;2023-11-19T14:07:00;2.78;;;2.08;;
1585;SDS011;786;48.718;9.514;2023-11-19T14:09:26;2.75;;;2.55;;
1585;SDS011;786;48.718;9.514;2023-11-19T14:11:54;2.28;;;1.60;;
1585;SDS011;786;48.718;9.514;2023-11-19T14:14:20;2.75;;;2.55;;
1585;SDS011;786;48.718;9.514;2023-11-19T14:16:46;2.63;;;2.42;;
1585;SDS011;786;48.718;9.514;2023-11-19T14:19:13;1.80;;;1.70;;
1585;SDS011;786;48.718;9.514;2023-11-19T14:21:41;2.55;;;2.35;;
1585;SDS011;786;48.718;9.514;2023-11-19T14:24:07;1.77;;;1.50;;
1585;SDS011;786;48.718;9.514;2023-11-19T14:26:34;3.47;;;3.22;;
1585;SDS011;786;48.718;9.514;2023-11-19T14:29:00;2.85;;;1.83;;
1585;SDS011;786;48.718;9.514;2023-11-19T14:31:27;3.25;;;2.97;;
1585;SDS011;786;48.718;9.514;2023-11-19T14:33:53;2.92;;;1.83;;
1585;SDS011;786;48.718;9.514;2023-11-19T14:36:20;4.50;;;3.40;;
1585;SDS011;786;48.718;9.514;2023-11-19T14:38:48;2.63;;;2.05;;
1585;SDS011;786;48.718;9.514;2023-11-19T14:41:15;2.38;;;2.13;;
1585;SDS011;786;48.718;9.514;2023-11-19T14:43:42;3.03;;;2.38;;
1585;SDS011;786;48.718;9.514;2023-11-19T14:46:08;1.75;;;1.65;;
1585;SDS011;786;48.718;9.514;2023-11-19T14:48:35;3.67;;;3.47;;
1585;SDS011;786;48.718;9.514;2023-11-19T14:51:01;2.15;;;2.00;;
1585;SDS011;786;48.718;9.514;2023-11-19T14:53:28;2.67;;;2.47;;
1585;SDS011;786;48.718;9.514;2023-11-19T14:55:56;2.35;;;1.77;;
1585;SDS011;786;48.718;9.514;2023-11-19T14:58:22;2.38;;;2.22;;
1585;SDS011;786;48.718;9.514;2023-11-19T15:00:50;2.50;;;2.30;;
1585;SDS011;786;48.718;9.514;2023-11-19T15:03:17;1.73;;;1.67;;
1585;SDS011;786;48.718;9.514;2023-11-19T15:05:44;2.85;;;2.75;;
1585;SDS011;786;48.718;9.514;2023-11-19T15:08:11;4.22;;;3.20;;
1585;SDS011;786;48.718;9.514;2023-11-19T15:10:37;4.38;;;3.90;;
1585;SDS011;786;48.718;9.514;2023-11-19T15:13:05;2.95;;;1.83;;
1585;SDS011;786;48.718;9.514;2023-11-19T15:15:31;3.78;;;3.50;;
1585;SDS011;786;48.718;9.514;2023-11-19T15:17:58;3.92;;;3.17;;
1585;SDS011;786;48.718;9.514;2023-11-19T15:20:24;3.95;;;3.53;;
1585;SDS011;786;48.718;9.514;2023-11-19T15:22:54;1.73;;;1.63;;
1585;SDS011;786;48.718;9.514;2023-11-19T15:25:21;1.73;;;1.63;;
1585;SDS011;786;48.718;9.514;2023-11-19T15:27:49;2.10;;;2.00;;
1585;SDS011;786;48.718;9.514;2023-11-19T15:30:17;2.10;;;1.52;;
1585;SDS011;786;48.718;9.514;2023-11-19T15:32:43;2.25;;;2.15;;
1585;SDS011;786;48.718;9.514;2023-11-19T15:35:10;1.65;;;1.50;;
1585;SDS011;786;48.718;9.514;2023-11-19T15:37:36;3.03;;;2.83;;
1585;SDS011;786;48.718;9.514;2023-11-19T15:40:05;1.92;;;1.80;;
1585;SDS011;786;48.718;9.514;2023-11-19T15:42:33;2.60;;;2.40;;
1585;SDS011;786;48.718;9.514;2023-11-19T15:44:59;1.67;;;1.40;;
1585;SDS011;786;48.718;9.514;2023-11-19T15:47:30;3.03;;;2.80;;